ADDS METAR Data INFO
IDs: Format: Raw Decoded Include TAF

Data at: 1550 UTC 12 Dec 2017

KMXO 121535Z AUTO 30012KT 10SM CLR M08/M13 A3020 RMK AO2
KMXO 121515Z AUTO 32012KT 10SM FEW014 M09/M13 A3020 RMK AO2
KMXO 121455Z AUTO 31013KT 10SM FEW012 M09/M13 A3019 RMK AO2
KMXO 121435Z AUTO 30011KT 10SM CLR M09/M12 A3019 RMK AO2
KMXO 121415Z AUTO 31010G15KT 10SM CLR M09/M13 A3019 RMK AO2
KMXO 121355Z AUTO 30012KT 10SM CLR M10/M13 A3018 RMK AO2
KMXO 121335Z AUTO 31011KT 10SM CLR M10/M13 A3018 RMK AO2
KMXO 121315Z AUTO 31011KT 10SM FEW015 M10/M12 A3017 RMK AO2
KMXO 121255Z AUTO 31012KT 10SM SCT016 M10/M12 A3018 RMK AO2
KMXO 121235Z AUTO 31010KT 10SM CLR M09/M12 A3018 RMK AO2
KMXO 121215Z AUTO 31010KT 10SM CLR M09/M12 A3018 RMK AO2
KMXO 121155Z AUTO 30010KT 10SM CLR M09/M12 A3017 RMK AO2
KMXO 121135Z AUTO 31007KT 10SM CLR M09/M12 A3017 RMK AO2
KMXO 121115Z AUTO 31007KT 10SM CLR M09/M13 A3017 RMK AO2
KMXO 121055Z AUTO 33011KT 10SM CLR M08/M13 A3016 RMK AO2
KMXO 121035Z AUTO 32008G15KT 10SM CLR M08/M13 A3015 RMK AO2
KMXO 121015Z AUTO 33014G22KT 10SM CLR M08/M13 A3015 RMK AO2
KMXO 120955Z AUTO 31012KT 10SM CLR M08/M12 A3015 RMK AO2
KMXO 120935Z AUTO 31012KT 10SM CLR M08/M12 A3015 RMK AO2
KMXO 120915Z AUTO 32012KT 10SM CLR M08/M11 A3015 RMK AO2
KMXO 120855Z AUTO 31008G17KT 10SM CLR M07/M12 A3015 RMK AO2
KMXO 120835Z AUTO 32013G20KT 10SM CLR M06/M11 A3014 RMK AO2
KMXO 120815Z AUTO 30007G16KT 10SM CLR M06/M11 A3014 RMK AO2
KMXO 120755Z AUTO 32012KT 10SM CLR M06/M11 A3014 RMK AO2
KMXO 120735Z AUTO 33014G19KT 10SM CLR M06/M11 A3013 RMK AO2
KMXO 120715Z AUTO 33018KT 10SM CLR M06/M11 A3012 RMK AO2
KMXO 120655Z AUTO 32016G22KT 10SM CLR M05/M11 A3012 RMK AO2
KMXO 120635Z AUTO 33017G23KT 10SM CLR M05/M11 A3011 RMK AO2
KMXO 120615Z AUTO 33017G24KT 10SM CLR M05/M10 A3010 RMK AO2
KMXO 120555Z AUTO 33016G21KT 10SM FEW032 M04/M10 A3010 RMK AO2
KMXO 120535Z AUTO 33015G26KT 10SM FEW032 M04/M10 A3009 RMK AO2
KMXO 120515Z AUTO 33018G29KT 10SM SCT031 M03/M10 A3008 RMK AO2
KMXO 120455Z AUTO 33020G30KT 10SM BKN031 M03/M09 A3007 RMK AO2
KMXO 120435Z AUTO 33022G28KT 10SM OVC033 M02/M08 A3006 RMK AO2
KMXO 120415Z AUTO 33022G29KT 10SM BKN032 M02/M08 A3005 RMK AO2
KMXO 120355Z AUTO 32021G30KT 10SM OVC031 M00/M06 A3003 RMK AO2
KMXO 120335Z AUTO 33017G26KT 10SM OVC032 00/M06 A3001 RMK AO2
KMXO 120315Z AUTO 33017G26KT 10SM OVC033 00/M05 A3001 RMK AO2
KMXO 120255Z AUTO 33017G28KT 10SM OVC031 00/M05 A3000 RMK AO2
KMXO 120235Z AUTO 33019G28KT 10SM SCT025 OVC031 00/M04 A2999 RMK AO2
KMXO 120215Z AUTO 33015G23KT 10SM OVC025 00/M03 A2998 RMK AO2
KMXO 120155Z AUTO 32020G28KT 10SM BKN023 OVC027 01/M03 A2996 RMK AO2
KMXO 120135Z AUTO 33020G25KT 10SM OVC019 01/M02 A2995 RMK AO2
KMXO 120115Z AUTO 33017G23KT 10SM OVC019 01/M01 A2993 RMK AO2
KMXO 120055Z AUTO 33017KT 10SM OVC017 01/M01 A2992 RMK AO2
KMXO 120035Z AUTO 33015G23KT 10SM BKN012 OVC017 01/M00 A2990 RMK AO2
KMXO 120015Z AUTO 34012G18KT 10SM OVC012 02/00 A2989 RMK AO2
KMXO 112355Z AUTO 33017KT 10SM OVC012 02/00 A2987 RMK AO2
KMXO 112335Z AUTO 33012G18KT 10SM OVC012 02/00 A2986 RMK AO2
KMXO 112315Z AUTO 33012KT 10SM OVC010 02/01 A2985 RMK AO2
KMXO 112255Z AUTO 31007KT 10SM OVC009 01/01 A2983 RMK AO2
KMXO 112235Z AUTO 31007KT 9SM OVC009 01/01 A2982 RMK AO2
KMXO 112215Z AUTO 31006KT 8SM BKN007 OVC010 01/01 A2981 RMK AO2
KMXO 112155Z AUTO 31008KT 7SM BKN006 OVC009 01/00 A2980 RMK AO2
KMXO 112135Z AUTO 30007KT 2 1/2SM -SN BKN005 BKN009 BKN015 01/00 A2979 RMK AO2
KMXO 112115Z AUTO 31008KT 1 1/4SM -SN BKN006 BKN018 01/00 A2978 RMK AO2
KMXO 112055Z AUTO 31008G15KT 3SM -SN SCT007 BKN019 SCT024 01/00 A2977 RMK AO2
KMXO 112035Z AUTO 31009KT 5SM -SN BKN007 BKN024 BKN036 01/00 A2976 RMK AO2
KMXO 112015Z AUTO 31011KT 2SM -SN FEW007 OVC023 01/M00 A2975 RMK AO2
KMXO 111955Z AUTO 32015KT 6SM -UP OVC021 02/M01 A2973 RMK AO2
KMXO 111935Z AUTO 29007KT 10SM OVC018 03/M03 A2972 RMK AO2
KMXO 111915Z AUTO 34006KT 10SM BKN018 OVC037 03/M02 A2970 RMK AO2
KMXO 111855Z AUTO 33008KT 10SM BKN037 BKN042 03/M03 A2969 RMK AO2
KMXO 111835Z AUTO 04006KT 10SM CLR 03/M03 A2967 RMK AO2
KMXO 111815Z AUTO 35005KT 10SM FEW110 03/M03 A2968 RMK AO2
KMXO 111755Z AUTO 00000KT 10SM CLR 03/M03 A2968 RMK AO2
KMXO 111735Z AUTO 28004KT 10SM -UP FEW085 03/M03 A2969 RMK AO2
KMXO 111715Z AUTO 00000KT 10SM SCT075 SCT085 02/M03 A2970 RMK AO2
KMXO 111655Z AUTO 12006KT 10SM BKN075 BKN085 03/M03 A2968 RMK AO2
KMXO 111635Z AUTO 15005KT 10SM OVC070 03/M03 A2969 RMK AO2
KMXO 111615Z AUTO 16005KT 10SM BKN065 02/M03 A2972 RMK AO2
KMXO 111555Z AUTO 16005KT 10SM BKN065 01/M03 A2973 RMK AO2
KMXO 111535Z AUTO 14007KT 10SM CLR 01/M03 A2972 RMK AO2
KMXO 111515Z AUTO 14005KT 10SM CLR 00/M04 A2973 RMK AO2
KMXO 111455Z AUTO 13005KT 10SM CLR M01/M04 A2974 RMK AO2
KMXO 111435Z AUTO 13005G11KT 10SM CLR M01/M04 A2975 RMK AO2
KMXO 111415Z AUTO 14008KT 10SM CLR M01/M04 A2975 RMK AO2
KMXO 111355Z AUTO 14008KT 10SM CLR M01/M04 A2977 RMK AO2
KMXO 111335Z AUTO 13008KT 10SM FEW120 M01/M04 A2978 RMK AO2
KMXO 111315Z AUTO 13006KT 10SM BKN110 M02/M05 A2981 RMK AO2
KMXO 111255Z AUTO 13006KT 10SM OVC110 M01/M04 A2982 RMK AO2
KMXO 111235Z AUTO 12006KT 10SM OVC110 M02/M05 A2984 RMK AO2
KMXO 111215Z AUTO 12006KT 10SM OVC110 M02/M05 A2985 RMK AO2
KMXO 111155Z AUTO 14006KT 10SM OVC110 M02/M05 A2985 RMK AO2
KMXO 111135Z AUTO 15007KT 10SM BKN100 OVC120 M02/M05 A2988 RMK AO2
KMXO 111115Z AUTO 16006KT 10SM BKN100 BKN120 M02/M05 A2989 RMK AO2
KMXO 111055Z AUTO 19004KT 10SM OVC100 M01/M05 A2991 RMK AO2
KMXO 111035Z AUTO 17006KT 10SM SCT075 OVC100 M02/M05 A2990 RMK AO2
KMXO 111015Z AUTO 17008KT 10SM BKN075 OVC095 M02/M05 A2990 RMK AO2
KMXO 110955Z AUTO 16008KT 10SM SCT070 SCT080 BKN100 M02/M05 A2992 RMK AO2
KMXO 110935Z AUTO 17007KT 10SM SCT110 M02/M05 A2995 RMK AO2
KMXO 110915Z AUTO 16005KT 10SM BKN110 M03/M05 A2996 RMK AO2
KMXO 110855Z AUTO 17005KT 10SM OVC120 M03/M05 A2998 RMK AO2
KMXO 110835Z AUTO 17003KT 10SM OVC110 M03/M05 A2998 RMK AO2
KMXO 110815Z AUTO 16007KT 10SM OVC110 M03/M05 A2997 RMK AO2
KMXO 110755Z AUTO 00000KT 10SM BKN110 M04/M06 A3001 RMK AO2
KMXO 110735Z AUTO 00000KT 10SM SCT080 BKN090 BKN110 M05/M06 A3001 RMK AO2
KMXO 110715Z AUTO 00000KT 10SM SCT075 OVC090 M04/M06 A3002 RMK AO2
KMXO 110655Z AUTO 00000KT 10SM OVC085 M04/M06 A3002 RMK AO2
KMXO 110635Z AUTO 00000KT 10SM OVC085 M04/M06 A3003 RMK AO2
KMXO 110615Z AUTO 10003KT 10SM OVC085 M05/M07 A3002 RMK AO2
KMXO 110555Z AUTO 00000KT 10SM OVC085 M06/M07 A3004 RMK AO2
KMXO 110535Z AUTO 00000KT 10SM OVC085 M06/M07 A3003 RMK AO2
KMXO 110515Z AUTO 00000KT 10SM OVC090 M08/M09 A3005 RMK AO2
KMXO 110455Z AUTO 00000KT 9SM BKN090 M08/M09 A3005 RMK AO2
KMXO 110435Z AUTO 00000KT 9SM CLR M08/M10 A3006 RMK AO2
KMXO 110415Z AUTO 00000KT 10SM CLR M07/M09 A3005 RMK AO2
KMXO 110355Z AUTO 00000KT 10SM CLR M09/M11 A3007 RMK AO2